createdAt,value
2023-03-16T00:02:08.558Z,67.60
2023-03-16T00:04:38.387Z,67.70
2023-03-16T00:07:06.525Z,67.70
2023-03-16T00:09:33.265Z,67.70
2023-03-16T00:12:03.151Z,67.70
2023-03-16T00:14:30.487Z,67.70
2023-03-16T00:16:57.404Z,67.70
2023-03-16T00:19:24.466Z,67.60
2023-03-16T00:21:51.797Z,67.60
2023-03-16T00:24:19.441Z,67.60
2023-03-16T00:26:47.235Z,67.60
2023-03-16T00:29:14.251Z,67.60
2023-03-16T00:31:44.564Z,67.60
2023-03-16T00:34:12.035Z,67.60
2023-03-16T00:36:38.800Z,67.60
2023-03-16T00:39:07.044Z,67.70
2023-03-16T00:41:38.029Z,67.60
2023-03-16T00:44:05.904Z,67.60
2023-03-16T00:46:32.988Z,67.60
2023-03-16T00:48:59.829Z,67.60
2023-03-16T00:51:26.724Z,67.60
2023-03-16T00:53:53.809Z,67.50
2023-03-16T00:56:20.654Z,67.60
2023-03-16T00:58:48.020Z,67.60
2023-03-16T01:01:16.269Z,67.70
2023-03-16T01:03:43.711Z,67.80
2023-03-16T01:06:12.054Z,67.80
2023-03-16T01:08:40.029Z,67.80
2023-03-16T01:11:12.773Z,67.80
2023-03-16T01:13:39.906Z,67.80
2023-03-16T01:16:08.391Z,67.80
2023-03-16T01:18:35.300Z,68.00
2023-03-16T01:21:03.513Z,67.90
2023-03-16T01:23:33.691Z,67.90
2023-03-16T01:26:00.635Z,67.80
2023-03-16T01:28:29.008Z,67.80
2023-03-16T01:30:59.253Z,67.80
2023-03-16T01:33:26.799Z,68.00
2023-03-16T01:35:54.657Z,68.20
2023-03-16T01:38:22.027Z,68.20
2023-03-16T01:40:51.434Z,68.20
2023-03-16T01:43:18.789Z,68.10
2023-03-16T01:46:14.313Z,68.10
2023-03-16T01:48:54.600Z,68.20
2023-03-16T01:51:25.829Z,68.10
2023-03-16T01:54:00.945Z,68.10
2023-03-16T01:56:48.328Z,68.10
2023-03-16T01:59:16.754Z,68.20
2023-03-16T02:01:46.760Z,68.10
2023-03-16T02:04:24.198Z,68.00
2023-03-16T02:06:55.292Z,68.10
2023-03-16T02:09:24.245Z,68.00
2023-03-16T02:11:52.043Z,68.00
2023-03-16T02:14:18.885Z,68.00
2023-03-16T02:16:47.454Z,68.00
2023-03-16T02:19:19.022Z,68.40
2023-03-16T02:21:46.304Z,68.00
2023-03-16T02:24:13.261Z,68.00
2023-03-16T02:26:47.878Z,68.00
2023-03-16T02:29:40.060Z,68.10
2023-03-16T02:32:06.990Z,68.10
2023-03-16T02:34:35.233Z,68.10
2023-03-16T02:37:02.806Z,68.20
2023-03-16T02:39:30.381Z,68.20
2023-03-16T02:41:57.640Z,68.20
2023-03-16T02:44:35.258Z,68.20
2023-03-16T02:47:07.246Z,68.20
2023-03-16T02:49:36.596Z,68.20
2023-03-16T02:52:04.480Z,68.20
2023-03-16T02:54:32.050Z,68.20
2023-03-16T02:56:58.804Z,69.10
2023-03-16T02:59:27.025Z,68.30
2023-03-16T03:01:54.139Z,68.40
2023-03-16T03:04:23.374Z,68.40
2023-03-16T03:06:50.457Z,68.40
2023-03-16T03:09:18.415Z,68.50
2023-03-16T03:11:49.311Z,68.50
2023-03-16T03:14:17.047Z,68.60
2023-03-16T03:16:46.937Z,68.70
2023-03-16T03:19:15.784Z,68.70
2023-03-16T03:21:42.549Z,68.80
2023-03-16T03:24:09.815Z,68.90
2023-03-16T03:26:38.239Z,68.90
2023-03-16T03:29:08.965Z,68.80
2023-03-16T03:31:35.970Z,68.90
2023-03-16T03:34:06.657Z,68.90
2023-03-16T03:36:35.403Z,69.00
2023-03-16T03:39:05.123Z,69.20
2023-03-16T03:41:33.720Z,69.20
2023-03-16T03:44:04.017Z,69.30
2023-03-16T03:46:30.906Z,69.40
2023-03-16T03:49:03.573Z,69.40
2023-03-16T03:51:32.951Z,69.50
2023-03-16T03:54:03.721Z,69.60
2023-03-16T03:56:49.410Z,69.70
2023-03-16T03:59:17.142Z,69.80
2023-03-16T04:02:01.050Z,69.80
2023-03-16T04:04:38.095Z,70.00
2023-03-16T04:07:05.407Z,70.10
2023-03-16T04:09:34.010Z,70.10
2023-03-16T04:12:03.602Z,70.20
2023-03-16T04:14:31.165Z,70.10
2023-03-16T04:17:00.401Z,70.10
2023-03-16T04:19:28.568Z,70.20
2023-03-16T04:21:56.574Z,70.20
2023-03-16T04:24:24.097Z,70.20
2023-03-16T04:26:54.233Z,70.30
2023-03-16T04:29:21.179Z,70.40
2023-03-16T04:31:48.089Z,70.40
2023-03-16T04:34:17.024Z,70.50
2023-03-16T04:36:44.134Z,70.50
2023-03-16T04:39:11.085Z,70.40
2023-03-16T04:41:38.092Z,70.40
2023-03-16T04:44:15.635Z,70.50
2023-03-16T04:46:43.027Z,70.50
2023-03-16T04:49:11.427Z,70.50
2023-03-16T04:51:42.520Z,70.50
2023-03-16T04:54:13.679Z,70.60
2023-03-16T04:56:43.851Z,70.60
2023-03-16T04:59:30.133Z,70.70
2023-03-16T05:02:26.087Z,70.70
2023-03-16T05:04:55.162Z,70.70
2023-03-16T05:07:22.519Z,70.70
2023-03-16T05:09:53.475Z,70.70
2023-03-16T05:12:20.507Z,70.80
2023-03-16T05:14:51.912Z,70.90
2023-03-16T05:17:28.531Z,71.00
2023-03-16T05:19:55.674Z,71.00
2023-03-16T05:22:22.539Z,71.00
2023-03-16T05:25:08.146Z,71.00
2023-03-16T05:27:35.188Z,71.00
2023-03-16T05:30:03.883Z,71.00
2023-03-16T05:32:32.557Z,71.10
2023-03-16T05:34:59.393Z,71.10
2023-03-16T05:37:26.437Z,71.10
2023-03-16T05:39:53.314Z,71.20
2023-03-16T05:42:20.424Z,71.20
2023-03-16T05:44:53.793Z,71.30
2023-03-16T05:47:28.366Z,71.20
2023-03-16T05:49:58.425Z,71.20
2023-03-16T05:52:39.116Z,71.30
2023-03-16T05:55:14.552Z,71.30
2023-03-16T05:57:41.758Z,71.30
2023-03-16T06:00:15.721Z,71.30
2023-03-16T06:02:50.023Z,71.30
2023-03-16T06:05:17.695Z,71.30
2023-03-16T06:07:50.165Z,71.20
2023-03-16T06:10:18.562Z,71.20
2023-03-16T06:12:45.473Z,71.20
2023-03-16T06:15:20.191Z,71.30
2023-03-16T06:17:48.848Z,71.20
2023-03-16T06:20:17.777Z,71.20
2023-03-16T06:22:46.531Z,71.20
2023-03-16T06:25:13.841Z,71.30
2023-03-16T06:27:42.948Z,71.40
2023-03-16T06:30:13.484Z,71.30
2023-03-16T06:32:42.591Z,71.40
2023-03-16T06:35:10.208Z,71.40
2023-03-16T06:37:40.512Z,71.40
2023-03-16T06:40:36.774Z,71.40
2023-03-16T06:43:03.888Z,71.50
2023-03-16T06:45:31.943Z,71.60
2023-03-16T06:47:59.612Z,71.50
2023-03-16T06:50:27.098Z,71.70
2023-03-16T06:52:54.470Z,71.70
2023-03-16T06:55:21.383Z,71.80
2023-03-16T06:57:50.391Z,71.80
2023-03-16T07:00:18.990Z,71.80
2023-03-16T07:02:45.783Z,71.80
2023-03-16T07:05:14.795Z,71.70
2023-03-16T07:07:43.232Z,71.90
2023-03-16T07:10:14.147Z,72.00
2023-03-16T07:12:42.267Z,72.00
2023-03-16T07:15:09.943Z,72.00
2023-03-16T07:17:37.228Z,72.20
2023-03-16T07:20:10.010Z,72.20
2023-03-16T07:22:37.928Z,72.40
2023-03-16T07:25:07.186Z,72.40
2023-03-16T07:27:34.327Z,72.60
2023-03-16T07:30:08.368Z,72.70
2023-03-16T07:32:38.558Z,72.70
2023-03-16T07:35:06.170Z,72.80
2023-03-16T07:37:35.026Z,72.90
2023-03-16T07:40:05.117Z,73.00
2023-03-16T07:42:31.919Z,73.00
2023-03-16T07:45:09.471Z,73.00
2023-03-16T07:47:36.417Z,73.10
2023-03-16T07:50:11.502Z,73.10
2023-03-16T07:52:41.735Z,73.30
2023-03-16T07:55:10.362Z,73.40
2023-03-16T07:57:39.180Z,73.50
2023-03-16T08:00:07.806Z,73.60
2023-03-16T08:02:39.989Z,73.60
2023-03-16T08:05:12.851Z,73.90
2023-03-16T08:07:43.858Z,73.90
2023-03-16T08:10:15.064Z,73.90
2023-03-16T08:12:51.796Z,74.10
2023-03-16T08:15:19.334Z,74.50
2023-03-16T08:17:47.806Z,74.50
2023-03-16T08:20:21.069Z,74.60
2023-03-16T08:22:49.715Z,74.70
2023-03-16T08:25:20.026Z,74.70
2023-03-16T08:27:58.322Z,74.70
2023-03-16T08:30:26.814Z,74.80
2023-03-16T08:33:10.623Z,75.10
2023-03-16T08:35:41.094Z,75.10
2023-03-16T08:38:09.050Z,75.30
2023-03-16T08:40:35.955Z,75.20
2023-03-16T08:43:04.196Z,75.30
2023-03-16T08:45:33.264Z,75.40
2023-03-16T08:48:00.623Z,75.40
2023-03-16T08:50:28.547Z,75.20
2023-03-16T08:52:55.481Z,75.50
2023-03-16T08:55:22.318Z,75.60
2023-03-16T08:57:49.599Z,75.60
2023-03-16T09:00:17.806Z,75.70
2023-03-16T09:02:44.766Z,75.80
2023-03-16T09:05:12.765Z,75.80
2023-03-16T09:07:39.603Z,75.90
2023-03-16T09:10:09.636Z,75.90
2023-03-16T09:12:36.726Z,76.00
2023-03-16T09:15:04.138Z,76.00
2023-03-16T09:17:30.814Z,76.10
2023-03-16T09:20:08.119Z,76.10
2023-03-16T09:22:42.245Z,76.40
2023-03-16T09:25:11.251Z,76.50
2023-03-16T09:27:37.995Z,76.60
2023-03-16T09:30:05.918Z,76.70
2023-03-16T09:32:33.516Z,76.60
2023-03-16T09:35:00.395Z,76.60
2023-03-16T09:37:27.892Z,76.70
2023-03-16T09:39:58.013Z,76.80
2023-03-16T09:42:30.677Z,76.80
2023-03-16T09:45:00.374Z,76.80
2023-03-16T09:47:31.145Z,76.90
2023-03-16T09:50:00.402Z,76.90
2023-03-16T09:52:45.948Z,76.90
2023-03-16T09:55:25.201Z,76.80
2023-03-16T09:57:52.363Z,76.80
2023-03-16T10:00:24.437Z,76.80
2023-03-16T10:03:00.398Z,76.70
2023-03-16T10:05:27.486Z,76.80
2023-03-16T10:08:03.517Z,76.80
2023-03-16T10:10:39.888Z,76.80
2023-03-16T10:13:12.779Z,76.80
2023-03-16T10:15:40.342Z,76.90
2023-03-16T10:18:13.700Z,76.80
2023-03-16T10:20:41.863Z,76.80
2023-03-16T10:23:14.913Z,76.90
2023-03-16T10:25:44.229Z,76.80
2023-03-16T10:28:13.678Z,76.90
2023-03-16T10:30:42.847Z,77.00
2023-03-16T10:33:26.771Z,77.00
2023-03-16T10:35:54.080Z,77.00
2023-03-16T10:38:41.386Z,76.80
2023-03-16T10:41:20.451Z,76.90
2023-03-16T10:43:51.147Z,76.90
2023-03-16T10:46:18.793Z,76.90
2023-03-16T10:48:53.415Z,76.90
2023-03-16T10:51:25.147Z,76.90
2023-03-16T10:53:52.137Z,76.90
2023-03-16T10:56:25.365Z,77.00
2023-03-16T10:58:52.365Z,77.10
2023-03-16T11:01:21.731Z,77.10
2023-03-16T11:03:51.301Z,77.20
2023-03-16T11:06:24.627Z,77.20
2023-03-16T11:08:53.045Z,77.30
2023-03-16T11:11:29.332Z,77.30
2023-03-16T11:14:01.111Z,77.40
2023-03-16T11:16:39.422Z,77.20
2023-03-16T11:19:14.827Z,77.20
2023-03-16T11:21:51.537Z,77.20
2023-03-16T11:24:27.271Z,77.10
2023-03-16T11:26:57.043Z,77.00
2023-03-16T11:29:36.036Z,77.00
2023-03-16T11:32:11.615Z,77.10
2023-03-16T11:34:39.178Z,77.20
2023-03-16T11:37:13.155Z,77.20
2023-03-16T11:39:47.330Z,77.00
2023-03-16T11:42:33.423Z,76.80
2023-03-16T11:45:15.252Z,76.80
2023-03-16T11:48:01.060Z,76.90
2023-03-16T11:50:35.639Z,76.90
2023-03-16T11:53:22.558Z,77.00
2023-03-16T11:56:08.059Z,77.20
2023-03-16T11:58:40.935Z,77.30
2023-03-16T12:01:19.835Z,77.30
2023-03-16T12:03:59.024Z,77.30
2023-03-16T12:06:47.195Z,77.30
2023-03-16T12:09:28.747Z,77.20
2023-03-16T12:12:04.817Z,77.10
2023-03-16T12:14:32.136Z,77.00
2023-03-16T12:17:17.503Z,76.90
2023-03-16T12:19:59.624Z,76.90
2023-03-16T12:22:29.930Z,76.80
2023-03-16T12:24:56.615Z,76.80
2023-03-16T12:27:30.111Z,76.70
2023-03-16T12:30:03.678Z,77.60
2023-03-16T12:32:42.798Z,76.60
2023-03-16T12:35:29.481Z,76.60
2023-03-16T12:38:01.201Z,76.50
2023-03-16T12:40:33.728Z,76.20
2023-03-16T12:43:10.671Z,76.10
2023-03-16T12:45:47.992Z,75.90
2023-03-16T12:48:32.413Z,75.90
2023-03-16T12:51:00.821Z,75.70
2023-03-16T12:53:33.540Z,75.60
2023-03-16T12:56:05.148Z,75.40
2023-03-16T12:58:32.996Z,75.20
2023-03-16T13:01:00.193Z,74.90
2023-03-16T13:03:28.434Z,74.70
2023-03-16T13:06:00.694Z,74.40
2023-03-16T13:08:28.842Z,73.80
2023-03-16T13:11:11.015Z,73.10
2023-03-16T13:14:06.247Z,72.80
2023-03-16T13:16:36.349Z,72.50
2023-03-16T13:19:22.564Z,72.20
2023-03-16T13:22:00.175Z,72.10
2023-03-16T13:24:35.240Z,71.70
2023-03-16T13:27:11.346Z,71.30
2023-03-16T13:29:39.144Z,71.20
2023-03-16T13:32:16.649Z,71.00
2023-03-16T13:34:48.492Z,70.90
2023-03-16T13:37:16.921Z,70.80
2023-03-16T13:39:51.593Z,70.80
2023-03-16T13:42:19.289Z,70.70
2023-03-16T13:44:49.553Z,70.50
2023-03-16T13:47:19.905Z,70.60
2023-03-16T13:49:51.875Z,70.30
2023-03-16T13:52:25.495Z,70.30
2023-03-16T13:54:53.231Z,70.00
2023-03-16T13:57:22.126Z,69.90
2023-03-16T13:59:49.541Z,69.90
2023-03-16T14:02:22.289Z,70.00
2023-03-16T14:04:49.212Z,70.00
2023-03-16T14:07:17.557Z,69.60
2023-03-16T14:09:46.730Z,69.50
2023-03-16T14:12:17.576Z,69.50
2023-03-16T14:14:50.253Z,69.20
2023-03-16T14:17:17.888Z,69.10
2023-03-16T14:19:49.869Z,68.80
2023-03-16T14:22:18.510Z,68.70
2023-03-16T14:24:46.848Z,68.40
2023-03-16T14:27:19.717Z,68.20
2023-03-16T14:29:50.834Z,68.20
2023-03-16T14:32:27.935Z,67.80
2023-03-16T14:35:04.211Z,67.00
2023-03-16T14:37:35.612Z,66.90
2023-03-16T14:40:05.981Z,66.50
2023-03-16T14:42:32.987Z,66.60
2023-03-16T14:45:00.997Z,66.60
2023-03-16T14:47:29.244Z,66.60
2023-03-16T14:49:57.367Z,66.60
2023-03-16T14:52:27.146Z,66.30
2023-03-16T14:54:55.073Z,66.30
2023-03-16T14:57:22.189Z,66.00
2023-03-16T14:59:48.928Z,65.80
2023-03-16T15:02:25.283Z,65.80
2023-03-16T15:04:52.575Z,65.70
2023-03-16T15:07:22.354Z,65.80
2023-03-16T15:09:50.554Z,65.80
2023-03-16T15:12:19.476Z,65.90
2023-03-16T15:15:04.986Z,65.90
2023-03-16T15:17:32.398Z,65.40
2023-03-16T15:19:59.184Z,65.00
2023-03-16T15:22:30.679Z,64.90
2023-03-16T15:24:58.756Z,64.90
2023-03-16T15:27:28.842Z,64.90
2023-03-16T15:29:56.587Z,64.60
2023-03-16T15:32:23.559Z,64.50
2023-03-16T15:34:50.419Z,64.40
2023-03-16T15:37:18.139Z,64.30
2023-03-16T15:39:46.777Z,64.20
2023-03-16T15:42:17.596Z,64.00
2023-03-16T15:44:44.798Z,63.90
2023-03-16T15:47:14.329Z,64.00
2023-03-16T15:49:47.732Z,63.90
2023-03-16T15:52:29.991Z,63.90
2023-03-16T15:54:57.570Z,63.60
2023-03-16T15:57:24.628Z,63.70
2023-03-16T15:59:52.335Z,63.50
2023-03-16T16:02:28.024Z,63.90
2023-03-16T16:04:55.173Z,63.30
2023-03-16T16:07:22.267Z,63.40
2023-03-16T16:09:49.387Z,63.50
2023-03-16T16:12:17.359Z,63.30
2023-03-16T16:14:44.365Z,63.10
2023-03-16T16:17:19.861Z,62.90
2023-03-16T16:19:47.956Z,62.90
2023-03-16T16:22:14.586Z,62.50
2023-03-16T16:24:41.352Z,62.50
2023-03-16T16:27:11.004Z,62.60
2023-03-16T16:29:38.585Z,62.60
2023-03-16T16:32:25.693Z,62.70
2023-03-16T16:35:03.889Z,62.70
2023-03-16T16:37:31.356Z,62.70
2023-03-16T16:39:58.108Z,62.50
2023-03-16T16:42:24.760Z,62.50
2023-03-16T16:44:51.995Z,62.60
2023-03-16T16:47:21.277Z,62.70
2023-03-16T16:49:49.403Z,62.60
2023-03-16T16:52:17.161Z,62.60
2023-03-16T16:54:43.956Z,62.70
2023-03-16T16:57:20.289Z,62.80
2023-03-16T16:59:48.310Z,62.70
2023-03-16T17:02:24.340Z,62.60
2023-03-16T17:04:51.658Z,62.60
2023-03-16T17:07:18.571Z,62.70
2023-03-16T17:09:45.372Z,62.60
2023-03-16T17:12:17.806Z,62.70
2023-03-16T17:14:44.512Z,62.80
2023-03-16T17:17:13.512Z,62.80
2023-03-16T17:19:40.435Z,63.00
2023-03-16T17:22:17.010Z,63.00
2023-03-16T17:24:43.861Z,63.00
2023-03-16T17:27:14.236Z,63.00
2023-03-16T17:29:42.746Z,63.20
2023-03-16T17:32:27.686Z,63.10
2023-03-16T17:34:54.641Z,63.20
2023-03-16T17:37:22.281Z,63.30
2023-03-16T17:39:49.228Z,63.20
2023-03-16T17:42:19.724Z,63.10
2023-03-16T17:44:47.953Z,63.20
2023-03-16T17:47:38.359Z,63.20
2023-03-16T17:50:15.915Z,63.20
2023-03-16T17:52:42.785Z,63.20
2023-03-16T17:55:09.687Z,63.20
2023-03-16T17:57:36.901Z,63.10
2023-03-16T18:00:07.255Z,63.10
2023-03-16T18:02:37.629Z,62.90
2023-03-16T18:05:05.852Z,63.00
2023-03-16T18:07:32.571Z,63.00
2023-03-16T18:09:59.251Z,63.10
2023-03-16T18:12:26.293Z,63.00
2023-03-16T18:14:58.532Z,63.00
2023-03-16T18:17:29.594Z,63.00
2023-03-16T18:19:56.675Z,63.00
2023-03-16T18:22:24.523Z,63.10
2023-03-16T18:24:52.987Z,63.10
2023-03-16T18:27:19.851Z,63.20
2023-03-16T18:29:47.044Z,63.20
2023-03-16T18:32:29.897Z,63.20
2023-03-16T18:34:57.082Z,63.20
2023-03-16T18:37:24.868Z,63.10
2023-03-16T18:39:52.870Z,63.00
2023-03-16T18:42:24.243Z,62.80
2023-03-16T18:44:51.649Z,62.60
2023-03-16T18:47:20.053Z,62.50
2023-03-16T18:49:49.434Z,62.50
2023-03-16T18:52:20.791Z,62.40
2023-03-16T18:54:48.209Z,62.40
2023-03-16T18:57:25.522Z,62.40
2023-03-16T18:59:52.628Z,62.60
2023-03-16T19:02:31.557Z,62.40
2023-03-16T19:04:59.645Z,62.40
2023-03-16T19:07:34.408Z,62.50
2023-03-16T19:10:03.206Z,62.60
2023-03-16T19:12:29.968Z,62.40
2023-03-16T19:14:56.682Z,62.40
2023-03-16T19:17:23.563Z,62.40
2023-03-16T19:19:50.608Z,62.50
2023-03-16T19:22:18.590Z,62.50
2023-03-16T19:24:53.873Z,62.50
2023-03-16T19:27:25.801Z,62.50
2023-03-16T19:29:53.794Z,62.50
2023-03-16T19:32:21.625Z,62.50
2023-03-16T19:34:49.255Z,62.30
2023-03-16T19:37:16.768Z,62.40
2023-03-16T19:39:43.813Z,62.50
2023-03-16T19:42:20.907Z,62.40
2023-03-16T19:44:49.206Z,62.40
2023-03-16T19:47:26.142Z,62.40
2023-03-16T19:49:53.075Z,62.40
2023-03-16T19:52:19.790Z,62.40
2023-03-16T19:54:46.837Z,62.30
2023-03-16T19:57:17.926Z,62.30
2023-03-16T19:59:49.549Z,62.30
2023-03-16T20:02:28.894Z,62.30
2023-03-16T20:04:55.839Z,62.30
2023-03-16T20:07:22.692Z,62.40
2023-03-16T20:09:49.714Z,62.40
2023-03-16T20:12:28.721Z,62.50
2023-03-16T20:14:56.393Z,62.50
2023-03-16T20:17:24.388Z,62.50
2023-03-16T20:19:52.145Z,62.50
2023-03-16T20:22:19.898Z,62.50
2023-03-16T20:24:48.398Z,62.60
2023-03-16T20:27:16.270Z,62.70
2023-03-16T20:29:42.996Z,62.60
2023-03-16T20:32:20.514Z,62.60
2023-03-16T20:34:47.599Z,62.60
2023-03-16T20:37:23.774Z,62.60
2023-03-16T20:39:54.502Z,62.50
2023-03-16T20:42:24.116Z,62.50
2023-03-16T20:44:50.914Z,62.60
2023-03-16T20:47:18.689Z,62.60
2023-03-16T20:49:45.401Z,62.60
2023-03-16T20:52:16.552Z,62.60
2023-03-16T20:54:43.418Z,62.60
2023-03-16T20:57:39.037Z,63.50
2023-03-16T21:00:13.343Z,62.70
2023-03-16T21:02:40.156Z,62.70
2023-03-16T21:05:07.749Z,62.80
2023-03-16T21:07:34.648Z,62.70
2023-03-16T21:10:01.569Z,62.70
2023-03-16T21:12:29.958Z,62.80
2023-03-16T21:14:56.922Z,62.70
2023-03-16T21:17:34.390Z,62.80
2023-03-16T21:20:01.266Z,62.70
2023-03-16T21:22:29.363Z,62.80
2023-03-16T21:24:56.601Z,62.90
2023-03-16T21:27:25.649Z,62.80
2023-03-16T21:29:56.245Z,62.70
2023-03-16T21:32:24.891Z,62.90
2023-03-16T21:34:51.905Z,62.90
2023-03-16T21:37:20.015Z,62.90
2023-03-16T21:39:47.893Z,63.00
2023-03-16T21:42:14.642Z,62.90
2023-03-16T21:44:41.276Z,62.90
2023-03-16T21:47:23.060Z,62.80
2023-03-16T21:49:50.333Z,62.80
2023-03-16T21:52:28.019Z,63.00
2023-03-16T21:54:55.605Z,63.00
2023-03-16T21:57:22.861Z,63.00
2023-03-16T21:59:50.399Z,62.90
2023-03-16T22:02:19.970Z,62.80
2023-03-16T22:04:47.457Z,62.80
2023-03-16T22:07:14.554Z,62.90
2023-03-16T22:09:41.986Z,62.90
2023-03-16T22:12:10.607Z,62.90
2023-03-16T22:14:37.321Z,62.90
2023-03-16T22:17:04.800Z,63.00
2023-03-16T22:19:32.388Z,63.00
2023-03-16T22:21:59.232Z,63.10
2023-03-16T22:24:27.939Z,63.20
2023-03-16T22:26:54.968Z,63.20
2023-03-16T22:29:21.718Z,63.20
2023-03-16T22:31:48.840Z,63.30
2023-03-16T22:34:27.280Z,63.30
2023-03-16T22:36:54.303Z,63.30
2023-03-16T22:39:21.207Z,63.30
2023-03-16T22:41:48.026Z,63.40
2023-03-16T22:44:20.213Z,63.40
2023-03-16T22:46:49.047Z,63.30
2023-03-16T22:49:27.037Z,63.30
2023-03-16T22:51:55.481Z,63.30
2023-03-16T22:54:24.122Z,63.30
2023-03-16T22:56:51.497Z,63.30
2023-03-16T22:59:20.167Z,63.30
2023-03-16T23:01:48.707Z,63.30
2023-03-16T23:04:24.391Z,63.40
2023-03-16T23:06:52.578Z,63.50
2023-03-16T23:09:20.491Z,63.50
2023-03-16T23:11:48.836Z,63.60
2023-03-16T23:14:16.855Z,63.40
2023-03-16T23:16:44.585Z,63.50
2023-03-16T23:19:24.680Z,63.40
2023-03-16T23:21:53.061Z,63.50
2023-03-16T23:24:19.924Z,63.50
2023-03-16T23:26:46.672Z,63.50
2023-03-16T23:29:13.640Z,63.40
2023-03-16T23:31:41.127Z,63.20
2023-03-16T23:34:12.148Z,63.20
2023-03-16T23:36:39.243Z,63.10
2023-03-16T23:39:06.205Z,63.10
2023-03-16T23:41:33.711Z,63.10
2023-03-16T23:44:01.398Z,63.00
2023-03-16T23:46:28.905Z,63.10
2023-03-16T23:48:58.040Z,63.10
2023-03-16T23:51:29.381Z,63.20
2023-03-16T23:53:56.206Z,63.20
2023-03-16T23:56:23.288Z,63.30
2023-03-16T23:58:50.949Z,63.30
